Kezdőlap
METAR-TAF:

METAR-TAF

Repülőterek :

Bermuda, Bermuda

földrajzi szélesség: 32-22N, földrajzi hosszúság: 064-41W, magasság: 6 m

Jelenlegi meteorológiai megfigyelések

A jelentés 1 órával és 1 perccel ezelõtt készült, 21:55 UTC
Nyugati szél 9 kt
Hőmérséklet 29°C
Páratartalom 70%
Légköri nyomás 1020 hPa
Látótávolság 10 km, vagy több
Kevés felhő 2300 lábon
Kevés felhő 30000 lábon

METAR: TXKF 192155Z 27009KT 9999 FEW023 FEW300 29/23 Q1020

Idő: 19:56 (22:56 UTC)

Előrejelzés

A jelentés 5 órával és 25 perccel ezelõtt készült, 17:31 UTC
Az előrejelzés 19-én 18 óra UTC és 20-én 18 óra UTC között érvényes
Nyugati szél 8 kt
Látótávolság 10 km, vagy több
Kevés felhő 2500 lábon

TAF: TXKF 191731Z 1918/2018 26008KT 9999 FEW025

Meteorológiai megfigyelések és előrejelzések több, mint 4000 repülőtéren (METAR és TAF jelentéseket).

A térképen piros és sárga pontok jelzik az elérhető meteorológiai állomásokat.

Mozgassa az egeret a pont fölött, hogy megjelenjen az állomás neve.

Azután kattintson az időjárási megfigyelések és előrejelzések megtekintéséhez.

A térkép megváltoztatása: kattintson a fekete keresztel jelölt zöld gombra ráközelítéshez, a vonallal jelölt zöld gombra távolításhoz, vagy a zöld nyilakra a szomszédos térképek eléréséhez.


METAR-TAF: